Map

Track Data

SID SEASON NUMBER BASIN SUBBASIN NAME ISO_TIME NATURE LAT LON WMO_WIND WMO_PRES WMO_AGENCY TRACK_TYPE DIST2LAND LANDFALL IFLAG USA_AGENCY USA_ATCF_ID USA_LAT USA_LON USA_RECORD USA_STATUS USA_WIND USA_PRES USA_SSHS USA_R34_NE USA_R34_SE USA_R34_SW USA_R34_NW USA_R50_NE USA_R50_SE USA_R50_SW USA_R50_NW USA_R64_NE USA_R64_SE USA_R64_SW USA_R64_NW USA_POCI USA_ROCI USA_RMW USA_EYE TOKYO_LAT TOKYO_LON TOKYO_GRADE TOKYO_WIND TOKYO_PRES TOKYO_R50_DIR TOKYO_R50_LONG TOKYO_R50_SHORT TOKYO_R30_DIR TOKYO_R30_LONG TOKYO_R30_SHORT TOKYO_LAND CMA_LAT CMA_LON CMA_CAT CMA_WIND CMA_PRES HKO_LAT HKO_LON HKO_CAT HKO_WIND HKO_PRES NEWDELHI_LAT NEWDELHI_LON NEWDELHI_GRADE NEWDELHI_WIND NEWDELHI_PRES NEWDELHI_CI NEWDELHI_DP NEWDELHI_POCI REUNION_LAT REUNION_LON REUNION_TYPE REUNION_WIND REUNION_PRES REUNION_TNUM REUNION_CI REUNION_RMW REUNION_R34_NE REUNION_R34_SE REUNION_R34_SW REUNION_R34_NW REUNION_R50_NE REUNION_R50_SE REUNION_R50_SW REUNION_R50_NW REUNION_R64_NE REUNION_R64_SE REUNION_R64_SW REUNION_R64_NW BOM_LAT BOM_LON BOM_TYPE BOM_WIND BOM_PRES BOM_TNUM BOM_CI BOM_RMW BOM_R34_NE BOM_R34_SE BOM_R34_SW BOM_R34_NW BOM_R50_NE BOM_R50_SE BOM_R50_SW BOM_R50_NW BOM_R64_NE BOM_R64_SE BOM_R64_SW BOM_R64_NW BOM_ROCI BOM_POCI BOM_EYE BOM_POS_METHOD BOM_PRES_METHOD NADI_LAT NADI_LON NADI_CAT NADI_WIND NADI_PRES WELLINGTON_LAT WELLINGTON_LON WELLINGTON_WIND WELLINGTON_PRES DS824_LAT DS824_LON DS824_STAGE DS824_WIND DS824_PRES TD9636_LAT TD9636_LON TD9636_STAGE TD9636_WIND TD9636_PRES TD9635_LAT TD9635_LON TD9635_WIND TD9635_PRES TD9635_ROCI NEUMANN_LAT NEUMANN_LON NEUMANN_CLASS NEUMANN_WIND NEUMANN_PRES MLC_LAT MLC_LON MLC_CLASS MLC_WIND MLC_PRES USA_GUST BOM_GUST BOM_GUST_PER REUNION_GUST REUNION_GUST_PER USA_SEAHGT USA_SEARAD_NE USA_SEARAD_SE USA_SEARAD_SW USA_SEARAD_NW STORM_SPEED STORM_DIR
1934233N13302 1934 43 NA NA NOT_NAMED 1934-08-20 18:00:00 TS 13.5000 -57.7000 35 hurdat_atl main 476 422 O_____________ hurdat_atl AL041934 13.5000 -57.7000 TS 35 0 15 274
1934233N13302 1934 43 NA NA NOT_NAMED 1934-08-20 21:00:00 TS 13.5505 -58.4575 main 423 379 P_____________ AL041934 13.5505 -58.4575 TS 35 0 15 274
1934233N13302 1934 43 NA NA NOT_NAMED 1934-08-21 00:00:00 TS 13.6000 -59.2000 35 hurdat_atl main 379 346 O_____________ hurdat_atl AL041934 13.6000 -59.2000 TS 35 0 14 274
1934233N13302 1934 43 NA CS NOT_NAMED 1934-08-21 03:00:00 TS 13.6498 -59.9150 main 346 338 P_____________ AL041934 13.6498 -59.9150 TS 35 0 14 274
1934233N13302 1934 43 NA CS NOT_NAMED 1934-08-21 06:00:00 TS 13.7000 -60.6000 35 hurdat_atl main 338 335 O_____________ hurdat_atl AL041934 13.7000 -60.6000 TS 35 0 13 273
1934233N13302 1934 43 NA CS NOT_NAMED 1934-08-21 09:00:00 TS 13.7274 -61.2727 main 335 335 P_____________ AL041934 13.7274 -61.2727 TS 35 0 13 275
1934233N13302 1934 43 NA CS NOT_NAMED 1934-08-21 12:00:00 TS 13.8000 -61.9000 35 hurdat_atl main 347 347 O_____________ hurdat_atl AL041934 13.8000 -61.9000 TS 35 0 12 281
1934233N13302 1934 43 NA CS NOT_NAMED 1934-08-21 15:00:00 TS 13.9548 -62.4651 main 369 369 P_____________ AL041934 13.9548 -62.4651 TS 35 0 11 291
1934233N13302 1934 43 NA CS NOT_NAMED 1934-08-21 18:00:00 TS 14.2000 -63.0000 35 hurdat_atl main 391 391 O_____________ hurdat_atl AL041934 14.2000 -63.0000 TS 35 0 12 299
1934233N13302 1934 43 NA CS NOT_NAMED 1934-08-21 21:00:00 TS 14.5274 -63.5500 main 428 391 P_____________ AL041934 14.5274 -63.5500 TS 35 0 13 303
1934233N13302 1934 43 NA CS NOT_NAMED 1934-08-22 00:00:00 TS 14.9000 -64.1000 35 hurdat_atl main 391 338 O_____________ hurdat_atl AL041934 14.9000 -64.1000 TS 35 0 13 305
1934233N13302 1934 43 NA CS NOT_NAMED 1934-08-22 03:00:00 TS 15.2649 -64.6501 main 324 276 P_____________ AL041934 15.2649 -64.6501 TS 35 0 13 303
1934233N13302 1934 43 NA CS NOT_NAMED 1934-08-22 06:00:00 TS 15.6000 -65.2000 35 hurdat_atl main 276 230 O_____________ hurdat_atl AL041934 15.6000 -65.2000 TS 35 0 12 300
1934233N13302 1934 43 NA CS NOT_NAMED 1934-08-22 09:00:00 TS 15.8798 -65.7426 main 230 201 P_____________ AL041934 15.8798 -65.7426 TS 35 0 12 295
1934233N13302 1934 43 NA CS NOT_NAMED 1934-08-22 12:00:00 TS 16.1000 -66.3000 35 hurdat_atl main 201 179 O_____________ hurdat_atl AL041934 16.1000 -66.3000 TS 35 0 12 290
1934233N13302 1934 43 NA CS NOT_NAMED 1934-08-22 15:00:00 TS 16.2724 -66.8926 main 179 168 P_____________ AL041934 16.2724 -66.8926 TS 35 0 12 285
1934233N13302 1934 43 NA CS NOT_NAMED 1934-08-22 18:00:00 TS 16.4000 -67.5000 35 hurdat_atl main 170 169 O_____________ hurdat_atl AL041934 16.4000 -67.5000 TS 35 0 12 281
1934233N13302 1934 43 NA CS NOT_NAMED 1934-08-22 21:00:00 TS 16.4998 -68.1002 main 183 179 P_____________ AL041934 16.4998 -68.1002 TS 32 -1 12 280
1934233N13302 1934 43 NA CS NOT_NAMED 1934-08-23 00:00:00 TS 16.6000 -68.7000 30 hurdat_atl main 179 169 O_____________ hurdat_atl AL041934 16.6000 -68.7000 TD 30 -1 12 282
1934233N13302 1934 43 NA CS NOT_NAMED 1934-08-23 03:00:00 TS 16.7378 -69.2997 main 176 148 P_____________ AL041934 16.7378 -69.2997 TD 30 -1 12 285
1934233N13302 1934 43 NA CS NOT_NAMED 1934-08-23 06:00:00 TS 16.9000 -69.9000 30 hurdat_atl main 148 O_____________ hurdat_atl AL041934 16.9000 -69.9000 TD 30 -1 12 286

About IBTrACS Database

This database is a web-friendly format of International Best Track Archive for Climate Stewardship (IBTrACS), a global best track data archive curated by NOAA dating back to 1842.

Updated: 2021-12-03